Ashtabula, Ohio
Current Conditions -  °F | °C
As of 5:53 PM on Monday 24 Nov 2014 (Local Time) from KHZY Reporting Station
Broken Clouds Broken Clouds  
Wind Chill:   Ceiling: 4300
Heat Index:   Visibility: 10mi
Dew Point:   Wind: 22mph
Humidity: 66%   Direction: 250°WSW
Pressure: 29.58"   Gusts: 29mph
Location:  41.89°N, 80.79°W
Report Text: KHZY 242253Z AUTO 25019G25KT 10SM BKN043 09/03 A2958 RMK AO2 PK WND 24032/2158 SLP016 T00890028
Loading
Personal Weather Stations






























Interactive Weather Map New forecast layout! Learn more

10-Day Weather Forecast

Advertisements
Track Severe Weather on mobile